Time;durP1;ratioP1;P1;durP2;ratioP2;P2;SDS_P1;SDS_P2;PMS_P1;PMS_P2;Temp;Humidity;BMP_temperature;BMP_pressure;BME280_temperature;BME280_humidity;BME280_pressure;Samples;Min_cycle;Max_cycle;Signal;HPM_P1;HPM_P2
2023/06/05 01:43:10;;;;;;;0.70;0.70;;;;;;;16.31;100.00;100078.09;4992091;28;20050;-91
2023/06/05 01:45:37;;;;;;;0.75;0.52;;;;;;;16.31;100.00;100075.28;4942963;28;20030;-90
2023/06/05 01:48:05;;;;;;;0.95;0.95;;;;;;;16.26;100.00;100050.75;4965479;28;20119;-91
2023/06/05 01:50:33;;;;;;;1.30;0.30;;;;;;;16.26;100.00;100070.34;5033845;28;20111;-90
2023/06/05 01:53:02;;;;;;;0.75;0.55;;;;;;;16.21;100.00;100054.22;4954600;28;20022;-91
2023/06/05 01:55:28;;;;;;;2.90;2.45;;;;;;;16.21;100.00;100068.22;4951812;28;20026;-91
2023/06/05 01:57:54;;;;;;;2.33;1.55;;;;;;;16.16;100.00;100066.06;4943755;28;20034;-91
2023/06/05 02:00:20;;;;;;;0.52;0.40;;;;;;;16.13;100.00;100055.81;4946982;28;20611;-90
2023/06/05 02:02:47;;;;;;;0.93;0.80;;;;;;;16.13;100.00;100067.00;4971608;28;20030;-90
2023/06/05 02:05:14;;;;;;;0.63;0.63;;;;;;;16.12;100.00;100068.25;5022953;28;20660;-90
2023/06/05 02:07:47;;;;;;;0.32;0.32;;;;;;;16.08;100.00;100062.06;5022734;28;20025;-90
2023/06/05 02:10:13;;;;;;;0.03;0.03;;;;;;;16.15;100.00;100064.50;5024535;28;20037;-90
2023/06/05 02:12:41;;;;;;;0.40;0.40;;;;;;;16.09;100.00;100058.00;5032655;28;20035;-90
2023/06/05 02:15:08;;;;;;;0.68;0.68;;;;;;;16.00;100.00;100058.06;5005527;28;20036;-90
2023/06/05 02:17:34;;;;;;;0.43;0.43;;;;;;;15.92;100.00;100062.44;5035035;28;20024;-90
2023/06/05 02:20:01;;;;;;;0.70;0.60;;;;;;;15.90;100.00;100064.91;5005658;28;20035;-90
2023/06/05 02:22:26;;;;;;;0.40;0.40;;;;;;;15.83;100.00;100072.41;5040168;28;20093;-89
2023/06/05 02:24:53;;;;;;;0.95;0.85;;;;;;;15.83;100.00;100061.22;5025528;28;20039;-89
2023/06/05 02:27:20;;;;;;;0.52;0.52;;;;;;;15.90;100.00;100064.91;5025671;28;20382;-89
2023/06/05 02:29:46;;;;;;;0.90;0.55;;;;;;;15.97;100.00;100073.78;5017494;28;20088;-90
2023/06/05 02:32:13;;;;;;;0.30;0.28;;;;;;;15.97;100.00;100067.41;5011678;28;20195;-90
2023/06/05 02:34:39;;;;;;;0.28;0.28;;;;;;;16.05;100.00;100074.19;5025747;28;20041;-90
2023/06/05 02:37:05;;;;;;;0.57;0.57;;;;;;;16.02;100.00;100069.53;4953128;28;20034;-89
2023/06/05 02:39:33;;;;;;;0.55;0.52;;;;;;;16.06;100.00;100070.13;5007647;28;20113;-90
2023/06/05 02:41:59;;;;;;;0.43;0.43;;;;;;;16.10;100.00;100071.50;5000899;28;20215;-90
2023/06/05 02:44:24;;;;;;;0.63;0.63;;;;;;;15.97;100.00;100059.00;5032932;28;20503;-90
2023/06/05 02:46:50;;;;;;;0.55;0.55;;;;;;;15.97;100.00;100067.41;5018603;28;20031;-90
2023/06/05 02:49:16;;;;;;;0.88;0.88;;;;;;;15.97;100.00;100064.59;5031761;28;20048;-90
2023/06/05 02:51:42;;;;;;;0.88;0.88;;;;;;;16.00;100.00;100063.66;5011125;28;20039;-89
2023/06/05 02:54:08;;;;;;;0.63;0.63;;;;;;;16.00;100.00;100058.06;5021574;28;20405;-90
2023/06/05 02:56:34;;;;;;;0.43;0.43;;;;;;;15.99;100.00;100067.69;5025303;28;20041;-89
2023/06/05 02:59:03;;;;;;;0.60;0.60;;;;;;;15.76;100.00;100044.81;5041778;28;20031;-90
2023/06/05 03:01:34;;;;;;;0.57;0.45;;;;;;;15.79;100.00;100052.25;5024639;28;20027;-91
2023/06/05 03:04:04;;;;;;;0.63;0.63;;;;;;;15.86;100.00;100062.31;5027045;28;20103;-92
2023/06/05 03:06:35;;;;;;;0.13;0.13;;;;;;;15.77;100.00;100057.50;5048563;28;20042;-90
2023/06/05 03:09:03;;;;;;;0.32;0.25;;;;;;;15.85;100.00;100069.91;5021172;28;20402;-90
2023/06/05 03:11:29;;;;;;;0.45;0.38;;;;;;;15.84;100.00;100068.38;5018508;28;20035;-89
2023/06/05 03:13:55;;;;;;;0.50;0.35;;;;;;;15.84;100.00;100071.19;5028650;28;20504;-91
2023/06/05 03:16:23;;;;;;;0.40;0.40;;;;;;;15.83;100.00;100066.81;5028525;28;20072;-90
2023/06/05 03:18:52;;;;;;;0.52;0.52;;;;;;;15.72;100.00;100063.78;5027233;28;20133;-90
2023/06/05 03:21:19;;;;;;;0.30;0.30;;;;;;;15.60;100.00;100053.56;5015953;28;20039;-90
2023/06/05 03:23:45;;;;;;;0.30;0.30;;;;;;;15.68;100.00;100065.97;5026109;28;20033;-90
2023/06/05 03:26:13;;;;;;;2.50;1.85;;;;;;;15.70;100.00;100080.22;5010558;28;20042;-90
2023/06/05 03:28:40;;;;;;;0.60;0.60;;;;;;;15.69;100.00;100075.88;5016374;28;20031;-90
2023/06/05 03:31:10;;;;;;;0.10;0.10;;;;;;;15.74;100.00;100072.44;5016093;28;20037;-89
2023/06/05 03:33:38;;;;;;;0.57;0.52;;;;;;;15.76;100.00;100072.00;5035622;28;20029;-90
2023/06/05 03:36:05;;;;;;;1.08;0.60;;;;;;;15.73;100.00;100056.16;5014861;28;20429;-89
2023/06/05 03:38:31;;;;;;;0.38;0.35;;;;;;;15.72;100.00;100055.38;5016935;28;20027;-91
2023/06/05 03:40:57;;;;;;;0.20;0.20;;;;;;;15.84;100.00;100070.41;5037981;28;20432;-90
2023/06/05 03:43:24;;;;;;;0.20;0.20;;;;;;;15.89;100.00;100069.00;5041581;28;20028;-90
2023/06/05 03:45:51;;;;;;;1.30;0.75;;;;;;;15.89;100.00;100057.81;5028442;28;20102;-90
2023/06/05 03:48:20;;;;;;;0.88;0.80;;;;;;;16.00;100.00;100063.66;5064848;28;20043;-90
2023/06/05 03:50:47;;;;;;;1.42;0.85;;;;;;;16.04;100.00;100053.84;5040867;28;20479;-90
2023/06/05 03:53:13;;;;;;;0.40;0.40;;;;;;;16.10;100.00;100071.50;5038889;28;20040;-89
2023/06/05 03:55:45;;;;;;;0.38;0.38;;;;;;;16.09;100.00;100066.41;5034683;28;20807;-91
2023/06/05 03:58:16;;;;;;;1.45;1.35;;;;;;;16.14;100.00;100082.53;5045316;28;20033;-89
2023/06/05 04:00:48;;;;;;;0.32;0.32;;;;;;;16.10;100.00;100062.34;5045489;28;20054;-90
2023/06/05 04:03:15;;;;;;;0.32;0.32;;;;;;;16.08;100.00;100060.03;5043350;28;20084;-91
2023/06/05 04:05:41;;;;;;;0.65;0.50;;;;;;;16.15;100.00;100075.69;5055689;28;20024;-91
2023/06/05 04:08:11;;;;;;;0.77;0.75;;;;;;;16.13;100.00;100078.19;5038514;28;20183;-90
2023/06/05 04:10:37;;;;;;;2.22;2.03;;;;;;;16.15;100.00;100075.69;5039344;28;20040;-89
2023/06/05 04:13:02;;;;;;;0.68;0.40;;;;;;;16.16;100.00;100071.66;5057094;28;20036;-89
2023/06/05 04:15:30;;;;;;;0.43;0.43;;;;;;;16.02;100.00;100066.72;5036294;28;20035;-91
2023/06/05 04:17:56;;;;;;;0.20;0.20;;;;;;;16.11;100.00;100075.09;5042396;28;20118;-90
2023/06/05 04:20:22;;;;;;;2.55;0.90;;;;;;;16.10;100.00;100079.13;5040762;28;20055;-89
2023/06/05 04:22:49;;;;;;;0.75;0.75;;;;;;;16.07;100.00;100078.06;5030512;28;20036;-90
2023/06/05 04:25:15;;;;;;;0.40;0.40;;;;;;;16.03;100.00;100066.28;5045744;28;20012;-90
2023/06/05 04:27:44;;;;;;;0.40;0.40;;;;;;;16.00;100.00;100053.22;5051531;28;20040;-91
2023/06/05 04:30:12;;;;;;;1.60;1.50;;;;;;;16.15;100.00;100081.28;5060781;28;20059;-90
2023/06/05 04:32:39;;;;;;;0.63;0.57;;;;;;;16.12;100.00;100054.25;5059560;28;20205;-89
2023/06/05 04:35:06;;;;;;;0.73;0.70;;;;;;;16.09;100.00;100077.59;5051294;28;20040;-90
2023/06/05 04:37:32;;;;;;;1.23;0.60;;;;;;;16.08;100.00;100050.88;5032186;28;20060;-90
2023/06/05 04:40:28;;;;;;;0.60;0.60;;;;;;;16.29;100.00;100067.38;5035712;28;20028;-91
2023/06/05 04:42:54;;;;;;;2.53;1.35;;;;;;;16.43;100.00;100062.31;5055030;28;20051;-90
2023/06/05 04:45:24;;;;;;;1.45;0.68;;;;;;;16.55;100.00;100070.47;5058767;28;20398;-94
2023/06/05 04:47:49;;;;;;;2.67;0.85;;;;;;;16.66;100.00;100065.13;5036809;28;20036;-91
2023/06/05 04:50:24;;;;;;;0.57;0.57;;;;;;;16.71;100.00;100061.69;5035017;28;20386;-92
2023/06/05 04:52:52;;;;;;;1.35;0.93;;;;;;;16.68;100.00;100059.84;5050256;28;20044;-90
2023/06/05 04:55:18;;;;;;;0.40;0.40;;;;;;;16.82;100.00;100068.78;5034324;28;20434;-93
2023/06/05 04:57:44;;;;;;;1.35;1.25;;;;;;;16.84;100.00;100063.44;5034288;28;20073;-93
2023/06/05 05:00:13;;;;;;;0.82;0.82;;;;;;;17.05;100.00;100074.31;5052197;28;20056;-93
2023/06/05 05:02:39;;;;;;;0.17;0.05;;;;;;;17.10;100.00;100051.25;5041496;28;20054;-91
2023/06/05 05:05:05;;;;;;;1.05;1.05;;;;;;;17.16;100.00;100046.50;5061563;28;20491;-91
2023/06/05 05:07:31;;;;;;;0.32;0.32;;;;;;;17.30;100.00;100056.19;5052336;28;20498;-90
2023/06/05 05:09:58;;;;;;;8.57;1.25;;;;;;;17.39;100.00;100056.06;5066011;28;20049;-91
2023/06/05 05:12:24;;;;;;;0.25;0.25;;;;;;;17.42;100.00;100049.50;5056849;28;20200;-93
2023/06/05 05:14:50;;;;;;;0.60;0.60;;;;;;;17.52;100.00;100044.56;5052094;28;20035;-91
2023/06/05 05:17:19;;;;;;;0.80;0.75;;;;;;;17.68;100.00;100052.50;5063040;28;20110;-90
2023/06/05 05:19:45;;;;;;;0.50;0.50;;;;;;;17.83;100.00;100060.94;5058270;28;20031;-91
2023/06/05 05:22:11;;;;;;;0.30;0.30;;;;;;;17.89;100.00;100056.16;5052045;28;20058;-92
2023/06/05 05:24:36;;;;;;;0.32;0.32;;;;;;;17.88;100.00;100040.56;5035233;28;20032;-94
2023/06/05 05:27:05;;;;;;;1.10;1.10;;;;;;;17.86;100.00;100034.69;5037420;28;20041;-95
2023/06/05 05:29:33;;;;;;;0.90;0.65;;;;;;;17.90;100.00;100033.22;5057642;28;20096;-95
2023/06/05 05:31:59;;;;;;;0.68;0.68;;;;;;;17.89;100.00;100033.72;5048728;28;20020;-96
2023/06/05 05:34:25;;;;;;;0.77;0.77;;;;;;;18.03;100.00;100028.06;5062404;28;20041;-95
2023/06/05 05:36:53;;;;;;;1.15;0.70;;;;;;;18.11;100.00;100028.44;5043789;28;20028;-96
2023/06/05 05:39:20;;;;;;;0.52;0.47;;;;;;;18.31;100.00;100050.91;5043688;28;20028;-94
2023/06/05 05:41:45;;;;;;;0.32;0.32;;;;;;;18.48;100.00;100057.50;5055748;28;20498;-94
2023/06/05 05:44:16;;;;;;;0.28;0.28;;;;;;;18.55;100.00;100037.47;5050604;28;20032;-96
2023/06/05 05:46:48;;;;;;;0.43;0.43;;;;;;;18.63;100.00;100030.19;5061421;28;20056;-95
2023/06/05 05:49:14;;;;;;;0.43;0.32;;;;;;;18.92;100.00;100034.84;5045399;28;20044;-94
2023/06/05 05:51:40;;;;;;;0.25;0.22;;;;;;;18.83;100.00;100031.41;5053080;28;20032;-95
2023/06/05 05:54:06;;;;;;;0.47;0.47;;;;;;;19.21;100.00;100073.22;5076371;28;20035;-96
2023/06/05 05:56:33;;;;;;;0.30;0.30;;;;;;;19.09;100.00;100054.69;5039198;28;20047;-95
2023/06/05 05:58:59;;;;;;;0.28;0.28;;;;;;;19.17;100.00;100078.28;5036549;28;20085;-93
2023/06/05 06:01:25;;;;;;;1.50;1.20;;;;;;;19.18;100.00;100071.41;5040600;28;20476;-94
2023/06/05 06:03:51;;;;;;;8.23;1.45;;;;;;;19.35;100.00;100083.59;5020298;28;20041;-92
2023/06/05 06:06:17;;;;;;;0.80;0.60;;;;;;;19.40;100.00;100085.69;5031063;28;20024;-92
2023/06/05 06:08:42;;;;;;;0.52;0.52;;;;;;;19.44;100.00;100088.31;5048190;28;20385;-92
2023/06/05 06:11:09;;;;;;;3.53;0.63;;;;;;;19.41;100.00;100095.66;5036439;28;20420;-93
2023/06/05 06:13:34;;;;;;;0.65;0.65;;;;;;;19.64;100.00;100104.34;5046378;28;20071;-92
2023/06/05 06:16:01;;;;;;;0.57;0.55;;;;;;;19.67;100.00;100089.28;5051106;28;20107;-92
2023/06/05 06:18:27;;;;;;;1.10;0.95;;;;;;;19.73;100.00;100109.81;5044868;28;20036;-94
2023/06/05 06:20:53;;;;;;;0.57;0.57;;;;;;;19.61;100.00;100099.72;5047686;28;20399;-96
2023/06/05 06:23:19;;;;;;;1.10;0.98;;;;;;;19.65;100.00;100100.28;5041688;28;20037;-94
2023/06/05 06:25:46;;;;;;;1.65;1.00;;;;;;;19.77;100.00;100110.38;5023768;28;20044;-94
2023/06/05 06:28:12;;;;;;;0.60;0.60;;;;;;;19.83;100.00;100105.53;5049085;28;20115;-96
2023/06/05 06:30:37;;;;;;;0.40;0.40;;;;;;;19.96;100.00;100108.72;5032642;28;20398;-94
2023/06/05 06:33:03;;;;;;;0.32;0.32;;;;;;;20.03;100.00;100097.00;5043645;28;20448;-96
2023/06/05 06:35:31;;;;;;;0.25;0.25;;;;;;;20.19;100.00;100099.16;5036243;28;20036;-96
2023/06/05 06:37:58;;;;;;;0.38;0.38;;;;;;;20.34;100.00;100110.31;5037343;28;20032;-94
2023/06/05 06:40:24;;;;;;;0.52;0.52;;;;;;;20.26;100.00;100104.31;5033043;28;20029;-95
2023/06/05 06:42:50;;;;;;;3.05;1.50;;;;;;;20.30;100.00;100112.59;5056423;28;20384;-94
2023/06/05 06:45:36;;;;;;;0.40;0.40;;;;;;;20.30;100.00;100104.16;5040262;28;20446;-95
2023/06/05 06:48:01;;;;;;;0.98;0.73;;;;;;;20.33;100.00;100103.91;5027488;28;20032;-96
2023/06/05 06:50:27;;;;;;;0.30;0.30;;;;;;;20.43;100.00;100099.59;5022912;28;20032;-95
2023/06/05 06:52:53;;;;;;;0.57;0.40;;;;;;;20.58;100.00;100104.31;5039823;28;20036;-96
2023/06/05 06:55:18;;;;;;;0.65;0.65;;;;;;;20.72;100.00;100100.53;5036242;28;20068;-95
2023/06/05 06:57:44;;;;;;;1.92;1.45;;;;;;;20.62;100.00;100107.66;5031288;28;20094;-95
2023/06/05 07:00:10;;;;;;;0.65;0.52;;;;;;;20.62;100.00;100110.47;5024270;28;20403;-95
2023/06/05 07:02:37;;;;;;;0.50;0.50;;;;;;;20.72;100.00;100103.34;5047895;28;20052;-96
2023/06/05 07:05:02;;;;;;;0.10;0.10;;;;;;;20.73;100.00;100093.63;5023171;28;20029;-96
2023/06/05 07:07:29;;;;;;;0.52;0.47;;;;;;;20.79;100.00;100106.44;5036050;28;20092;-96
2023/06/05 07:09:56;;;;;;;0.63;0.60;;;;;;;20.76;100.00;100101.81;5028532;28;20084;-96
2023/06/05 07:12:22;;;;;;;0.38;0.38;;;;;;;20.82;100.00;100096.22;5026861;28;20097;-96
2023/06/05 07:14:48;;;;;;;0.35;0.35;;;;;;;20.90;100.00;100094.47;5027199;28;20033;-95
2023/06/05 07:17:14;;;;;;;0.52;0.47;;;;;;;20.95;100.00;100090.88;5026308;28;20028;-96
2023/06/05 07:19:39;;;;;;;1.10;1.05;;;;;;;21.13;100.00;100100.97;5057759;28;20037;-96
2023/06/05 07:22:06;;;;;;;0.50;0.50;;;;;;;21.22;100.00;100109.22;5040199;28;20024;-96
2023/06/05 07:24:35;;;;;;;0.68;0.68;;;;;;;21.25;100.00;100096.91;5057102;28;20059;-96
2023/06/05 07:27:01;;;;;;;2.08;0.85;;;;;;;21.39;100.00;100091.00;5040325;28;20029;-96
2023/06/05 07:29:28;;;;;;;0.30;0.30;;;;;;;21.47;100.00;100096.19;5046961;28;20122;-96
2023/06/05 07:31:55;;;;;;;0.50;0.50;;;;;;;21.55;100.00;100092.34;5071246;28;20037;-96
2023/06/05 07:34:22;;;;;;;0.68;0.68;;;;;;;21.77;100.00;100091.56;5050993;28;20158;-96
2023/06/05 07:36:49;;;;;;;0.35;0.35;;;;;;;21.86;100.00;100091.31;5057118;28;20025;-95
2023/06/05 07:39:15;;;;;;;2.45;1.27;;;;;;;21.99;100.00;100093.66;5062069;28;20066;-96
2023/06/05 07:41:48;;;;;;;0.73;0.73;;;;;;;21.75;100.00;100091.34;5052630;28;20106;-95
2023/06/05 07:44:31;;;;;;;0.40;0.40;;;;;;;21.84;100.00;100091.06;5075664;28;20039;-96
2023/06/05 07:47:03;;;;;;;0.40;0.40;;;;;;;21.98;100.00;100089.28;5050149;28;20094;-96
2023/06/05 13:14:41;;;;;;;0.40;0.40;;;;;;;22.21;99.79;100012.47;5078710;28;20295;-96
2023/06/05 13:17:09;;;;;;;0.38;0.38;;;;;;;22.00;100.00;100002.75;5047606;28;20087;-95
2023/06/05 13:19:38;;;;;;;1.17;0.90;;;;;;;21.70;100.00;99996.09;5037736;28;20056;-96
2023/06/05 13:22:16;;;;;;;0.63;0.40;;;;;;;21.72;100.00;100031.00;5057747;28;20044;-96
2023/06/05 13:24:55;;;;;;;0.30;0.30;;;;;;;21.64;100.00;100037.66;5054024;28;20072;-96
2023/06/05 13:27:21;;;;;;;0.73;0.73;;;;;;;21.28;100.00;100012.00;5044927;28;20029;-96
2023/06/05 14:07:26;;;;;;;1.27;1.05;;;;;;;20.75;100.00;100055.19;5069470;28;20136;-96
2023/06/05 14:09:52;;;;;;;0.40;0.40;;;;;;;20.50;100.00;100016.66;5027159;28;20120;-96
2023/06/05 14:12:23;;;;;;;1.38;0.77;;;;;;;20.63;100.00;100042.31;5046878;28;20139;-96
2023/06/05 14:14:52;;;;;;;0.52;0.47;;;;;;;20.31;100.00;99993.00;5048538;28;20021;-96
2023/06/05 18:36:14;;;;;;;0.50;0.50;;;;;;;18.99;100.00;99912.75;5020924;28;20464;-89
2023/06/05 18:38:40;;;;;;;0.50;0.47;;;;;;;19.01;100.00;99919.41;4980578;28;20038;-88
2023/06/05 18:41:06;;;;;;;1.58;1.00;;;;;;;19.02;100.00;99911.75;4977648;28;20084;-88
2023/06/05 18:43:32;;;;;;;1.98;1.58;;;;;;;19.03;100.00;99904.88;4965318;28;20056;-89
2023/06/05 18:46:01;;;;;;;0.70;0.57;;;;;;;19.02;100.00;99908.94;4991160;28;20041;-88
2023/06/05 18:48:26;;;;;;;2.33;0.85;;;;;;;18.96;100.00;99900.50;4972439;28;20048;-88
2023/06/05 18:50:52;;;;;;;0.63;0.63;;;;;;;19.05;100.00;99910.75;4981091;28;20018;-88
2023/06/05 18:53:18;;;;;;;1.42;0.82;;;;;;;19.01;100.00;99901.78;5000435;28;20041;-88
2023/06/05 18:55:44;;;;;;;1.13;1.00;;;;;;;19.04;100.00;99912.81;4963104;28;20557;-88
2023/06/05 18:58:10;;;;;;;3.38;2.92;;;;;;;19.06;100.00;99910.28;4975292;28;20025;-88
2023/06/05 19:00:36;;;;;;;1.45;1.33;;;;;;;19.07;100.00;99899.81;4994633;28;20151;-89
2023/06/05 19:03:03;;;;;;;0.28;0.28;;;;;;;19.01;100.00;99908.19;4981498;28;20094;-89
2023/06/05 19:05:29;;;;;;;1.13;1.02;;;;;;;18.88;100.00;99896.59;4993485;28;20045;-88
2023/06/05 19:07:54;;;;;;;1.58;1.48;;;;;;;18.95;100.00;99909.41;4990256;28;20360;-88
2023/06/05 19:10:21;;;;;;;0.95;0.95;;;;;;;18.93;100.00;99900.69;4972682;28;20572;-89
2023/06/05 19:12:47;;;;;;;0.70;0.70;;;;;;;18.92;100.00;99905.56;4983692;28;20619;-88
2023/06/05 19:15:12;;;;;;;1.17;1.08;;;;;;;18.91;100.00;99903.25;4995103;28;20052;-87
2023/06/05 19:17:39;;;;;;;3.13;1.15;;;;;;;18.93;100.00;99911.94;4982738;28;20021;-88
2023/06/05 19:20:05;;;;;;;1.63;0.98;;;;;;;18.84;100.00;99892.44;4975809;28;20041;-89
2023/06/05 19:22:31;;;;;;;3.22;1.23;;;;;;;18.86;100.00;99901.91;4998759;28;20053;-89
2023/06/05 19:24:56;;;;;;;1.35;1.25;;;;;;;18.91;100.00;99920.88;5010247;28;20039;-89
2023/06/05 19:27:22;;;;;;;0.85;0.80;;;;;;;18.83;100.00;99913.38;4975443;28;20045;-88
2023/06/05 19:29:49;;;;;;;1.13;1.02;;;;;;;18.82;100.00;99915.41;4993594;28;20131;-91
2023/06/05 19:32:15;;;;;;;1.38;1.00;;;;;;;18.78;100.00;99911.28;4992925;28;20513;-89
2023/06/05 19:34:41;;;;;;;0.20;0.20;;;;;;;18.90;100.00;99930.56;4990773;28;20068;-88
2023/06/05 19:37:06;;;;;;;1.52;1.40;;;;;;;18.88;100.00;99921.88;5000329;28;20081;-87
2023/06/05 19:39:35;;;;;;;0.60;0.60;;;;;;;18.84;100.00;99917.75;4994257;28;20026;-90
2023/06/05 19:42:00;;;;;;;1.00;0.98;;;;;;;18.89;100.00;99917.00;4983514;28;20052;-89
2023/06/05 19:44:26;;;;;;;1.52;1.00;;;;;;;18.94;100.00;99921.91;4979859;28;20145;-89
2023/06/05 19:46:52;;;;;;;0.75;0.75;;;;;;;18.91;100.00;99922.91;4992271;28;20053;-88
2023/06/05 19:49:18;;;;;;;2.13;1.85;;;;;;;18.92;100.00;99916.03;4996978;28;20091;-90
2023/06/05 19:51:44;;;;;;;0.90;0.68;;;;;;;18.76;100.00;99916.66;4996256;28;20083;-89
2023/06/05 19:54:10;;;;;;;2.22;1.65;;;;;;;18.77;100.00;99920.97;5015247;28;20397;-89
2023/06/05 19:56:35;;;;;;;0.90;0.63;;;;;;;18.68;100.00;99913.50;4974705;28;20097;-89
2023/06/05 19:59:01;;;;;;;3.33;1.52;;;;;;;18.77;100.00;99926.59;4994020;28;20050;-90
2023/06/05 20:01:27;;;;;;;2.28;1.35;;;;;;;18.77;100.00;99923.78;4993608;28;20409;-90
2023/06/05 20:03:53;;;;;;;2.88;1.10;;;;;;;18.73;100.00;99920.44;4977434;28;20034;-90
2023/06/05 20:06:20;;;;;;;2.72;1.27;;;;;;;18.68;100.00;99921.94;4991583;28;20103;-90
2023/06/05 20:08:46;;;;;;;2.28;1.73;;;;;;;18.57;100.00;99908.53;4990273;28;20893;-91
2023/06/05 20:11:12;;;;;;;1.55;1.38;;;;;;;18.61;100.00;99909.09;4989575;28;20037;-90
2023/06/05 20:13:38;;;;;;;1.25;1.15;;;;;;;18.63;100.00;99906.56;4990104;28;20046;-90
2023/06/05 20:16:04;;;;;;;0.85;0.85;;;;;;;18.62;100.00;99902.22;4995471;28;20473;-90
2023/06/05 20:18:35;;;;;;;1.15;1.05;;;;;;;18.61;100.00;99908.31;4986630;28;20083;-90
2023/06/05 20:21:00;;;;;;;1.23;1.13;;;;;;;18.58;100.00;99912.88;5007567;28;20052;-91
2023/06/05 20:23:26;;;;;;;1.30;1.17;;;;;;;18.51;100.00;99899.25;4977172;28;20397;-91
2023/06/05 20:25:52;;;;;;;2.05;1.02;;;;;;;18.50;100.00;99897.72;5002782;28;20059;-90
2023/06/05 20:28:18;;;;;;;1.10;1.00;;;;;;;18.51;100.00;99904.88;4976223;28;20036;-90
2023/06/05 20:30:44;;;;;;;1.05;1.05;;;;;;;18.53;100.00;99901.59;4981475;28;20030;-91
2023/06/05 20:33:10;;;;;;;1.30;1.15;;;;;;;18.46;100.00;99888.72;4990179;28;20037;-91
2023/06/05 20:35:37;;;;;;;1.63;1.52;;;;;;;18.56;100.00;99900.63;5012074;28;20037;-91
2023/06/05 20:38:09;;;;;;;0.90;0.77;;;;;;;18.52;100.00;99898.00;4995088;28;20505;-90
2023/06/05 20:40:40;;;;;;;0.70;0.50;;;;;;;18.55;100.00;99905.47;4977833;28;20063;-91
2023/06/05 20:43:09;;;;;;;0.77;0.73;;;;;;;18.54;100.00;99900.31;4977340;28;20440;-90
2023/06/05 20:45:37;;;;;;;0.43;0.40;;;;;;;18.59;100.00;99908.03;4981333;28;20026;-90
2023/06/05 20:48:09;;;;;;;1.40;1.30;;;;;;;18.52;100.00;99906.44;4980205;28;20029;-91
2023/06/05 20:50:47;;;;;;;1.60;1.50;;;;;;;18.58;100.00;99898.84;4993232;28;20030;-91
2023/06/05 20:53:14;;;;;;;0.70;0.70;;;;;;;18.56;100.00;99906.97;4987399;28;20108;-90
2023/06/05 20:55:39;;;;;;;3.45;2.00;;;;;;;18.63;100.00;99915.00;4997075;28;20047;-90
2023/06/05 20:58:05;;;;;;;0.57;0.57;;;;;;;18.55;100.00;99911.06;4976009;28;20470;-90
2023/06/05 21:00:31;;;;;;;2.42;1.88;;;;;;;18.62;100.00;99933.09;4988086;28;20033;-90
2023/06/05 21:02:57;;;;;;;1.20;1.13;;;;;;;18.54;100.00;99925.59;4991708;28;20040;-90
2023/06/05 21:05:24;;;;;;;2.00;1.13;;;;;;;18.52;100.00;99928.91;4995162;28;20108;-90
2023/06/05 21:07:49;;;;;;;2.38;1.98;;;;;;;18.49;100.00;99915.81;4978964;28;20075;-90
2023/06/05 21:10:15;;;;;;;2.47;1.38;;;;;;;18.55;100.00;99927.94;4979726;28;20037;-91
2023/06/05 21:12:41;;;;;;;0.57;0.57;;;;;;;18.54;100.00;99926.38;4978585;28;20102;-89
2023/06/05 21:15:07;;;;;;;1.05;0.93;;;;;;;18.57;100.00;99930.22;4976850;28;20061;-90
2023/06/05 21:17:33;;;;;;;1.10;1.00;;;;;;;18.51;100.00;99932.97;4983521;28;20524;-89
2023/06/05 21:19:59;;;;;;;1.52;1.40;;;;;;;18.45;100.00;99912.47;4995286;28;20429;-90
2023/06/05 21:22:24;;;;;;;1.67;1.38;;;;;;;18.42;100.00;99924.69;4991528;28;20037;-90
2023/06/05 21:24:50;;;;;;;1.27;1.00;;;;;;;18.42;100.00;99923.91;4993566;28;20064;-89
2023/06/05 21:27:15;;;;;;;1.13;1.05;;;;;;;18.38;100.00;99912.91;4994811;28;20025;-90
2023/06/05 21:29:41;;;;;;;1.02;1.02;;;;;;;18.40;100.00;99920.84;4977915;28;20068;-91
2023/06/05 21:32:08;;;;;;;0.70;0.70;;;;;;;18.39;100.00;99931.28;4997153;28;20029;-89
2023/06/05 21:34:34;;;;;;;1.75;1.65;;;;;;;18.34;100.00;99920.75;4995792;28;20054;-90
2023/06/05 21:37:00;;;;;;;1.65;1.08;;;;;;;18.32;100.00;99926.09;4978742;28;20049;-89
2023/06/05 21:39:25;;;;;;;2.05;1.63;;;;;;;18.25;100.00;99920.91;4994336;28;20040;-90
2023/06/05 21:41:51;;;;;;;2.85;0.95;;;;;;;18.12;100.00;99910.03;4993669;28;20408;-90
2023/06/05 21:44:19;;;;;;;3.10;2.13;;;;;;;18.13;100.00;99922.03;4994067;28;20059;-90
2023/06/05 21:46:45;;;;;;;0.85;0.85;;;;;;;18.07;100.00;99921.22;4983847;28;20030;-90
2023/06/05 21:49:11;;;;;;;1.67;0.95;;;;;;;18.03;100.00;99915.03;4981690;28;20124;-90
2023/06/05 21:51:37;;;;;;;1.55;1.45;;;;;;;18.05;100.00;99916.06;4976778;28;20033;-89
2023/06/05 21:54:02;;;;;;;0.35;0.35;;;;;;;18.07;100.00;99921.22;4981565;28;20041;-90
2023/06/05 21:56:28;;;;;;;2.60;1.48;;;;;;;18.01;100.00;99912.72;4977354;28;20128;-90
2023/06/05 21:58:53;;;;;;;2.25;1.50;;;;;;;17.93;100.00;99910.81;4989042;28;20029;-89
2023/06/05 22:01:19;;;;;;;0.47;0.47;;;;;;;18.06;100.00;99925.28;4991914;28;20040;-90
2023/06/05 22:03:45;;;;;;;0.90;0.90;;;;;;;17.99;100.00;99912.44;4994217;28;20443;-89
2023/06/05 22:06:10;;;;;;;0.82;0.77;;;;;;;18.02;100.00;99913.47;4992508;28;20128;-89
2023/06/05 22:08:36;;;;;;;0.20;0.20;;;;;;;17.95;100.00;99920.28;4979446;28;20025;-89
2023/06/05 22:11:02;;;;;;;0.63;0.63;;;;;;;17.89;100.00;99911.03;4979241;28;20147;-90
2023/06/05 22:13:29;;;;;;;4.13;1.33;;;;;;;17.89;100.00;99910.25;4990960;28;20088;-90
2023/06/05 22:15:55;;;;;;;0.88;0.73;;;;;;;17.88;100.00;99914.31;4990269;28;20026;-90
2023/06/05 22:18:25;;;;;;;1.30;1.15;;;;;;;17.79;100.00;99906.03;4981486;28;20043;-89
2023/06/05 22:20:53;;;;;;;2.35;1.40;;;;;;;17.77;100.00;99916.97;4989324;28;20029;-89
2023/06/05 22:23:19;;;;;;;0.47;0.47;;;;;;;17.68;100.00;99901.81;5010967;28;20116;-90
2023/06/05 22:25:45;;;;;;;0.93;0.90;;;;;;;17.67;100.00;99911.47;4994400;28;20112;-90
2023/06/05 22:28:10;;;;;;;0.52;0.52;;;;;;;17.60;100.00;99906.28;4978392;28;20145;-90
2023/06/05 22:30:36;;;;;;;1.20;1.10;;;;;;;17.55;100.00;99901.34;4975692;28;20018;-91
2023/06/05 22:33:02;;;;;;;1.52;1.13;;;;;;;17.52;100.00;99902.31;5009201;28;20030;-90
2023/06/05 22:35:28;;;;;;;0.60;0.60;;;;;;;17.51;100.00;99897.97;4973853;28;20105;-90
2023/06/05 22:37:55;;;;;;;0.85;0.85;;;;;;;17.46;100.00;99901.47;4987577;28;20116;-89
2023/06/05 22:40:24;;;;;;;0.95;0.85;;;;;;;17.33;100.00;99897.44;4976717;28;20446;-90
2023/06/05 22:42:50;;;;;;;0.73;0.73;;;;;;;17.33;100.00;99895.41;4991747;28;20044;-90
2023/06/05 22:45:16;;;;;;;1.30;0.75;;;;;;;17.39;100.00;99901.84;4992906;28;20033;-89
2023/06/05 22:47:44;;;;;;;3.15;1.08;;;;;;;17.35;100.00;99887.28;4994010;28;20424;-90
2023/06/05 22:50:10;;;;;;;1.45;1.25;;;;;;;17.37;100.00;99895.19;4977669;28;20041;-89
2023/06/05 22:52:38;;;;;;;1.10;0.90;;;;;;;17.35;100.00;99901.28;4990286;28;20041;-90
2023/06/05 22:55:04;;;;;;;3.63;1.02;;;;;;;17.32;100.00;99893.84;4978077;28;20033;-90
2023/06/05 22:57:30;;;;;;;0.98;0.70;;;;;;;17.30;100.00;99871.16;4994240;28;20093;-89
2023/06/05 22:59:57;;;;;;;5.80;2.58;;;;;;;17.31;100.00;99895.09;4976559;28;20493;-90
2023/06/05 23:02:23;;;;;;;1.30;1.25;;;;;;;17.23;100.00;99882.75;4997464;28;20030;-90
2023/06/05 23:04:50;;;;;;;1.17;0.85;;;;;;;17.27;100.00;99889.69;5017205;28;20041;-90
2023/06/05 23:07:16;;;;;;;2.33;1.27;;;;;;;17.33;100.00;99897.44;4977124;28;20034;-89
2023/06/05 23:09:42;;;;;;;1.40;1.23;;;;;;;17.27;100.00;99886.13;4973114;28;20517;-90
2023/06/05 23:12:07;;;;;;;0.70;0.70;;;;;;;17.31;100.00;99895.09;4993071;28;20477;-89
2023/06/05 23:14:33;;;;;;;1.45;1.13;;;;;;;17.21;100.00;99885.28;4992297;28;20400;-90
2023/06/05 23:16:58;;;;;;;0.50;0.50;;;;;;;17.21;100.00;99883.25;4977530;28;20040;-90
2023/06/05 23:19:24;;;;;;;1.33;1.23;;;;;;;17.13;100.00;99872.94;4975855;28;20033;-89
2023/06/05 23:21:50;;;;;;;0.38;0.38;;;;;;;17.15;100.00;99873.19;4990032;28;20036;-90
2023/06/05 23:24:15;;;;;;;0.70;0.70;;;;;;;17.12;100.00;99871.38;4969065;28;20029;-89